Gaylordsville, CT

3:26 PM EDT on August 22, 2014 (GMT -0400)
Waterbury-Oxford | Change Station
CLOSE
Current Station
Airport
Location: Oxford,
Elevation: 725 ft
Nearby Weather Stations

Elev 725 ft 41.47 °N, 73.14 °W | Updated 32 minutes ago

Overcast
Overcast
72 °F
Feels Like 72 °F
N
7
Wind Variable Wind from ESE

Today
High -- | Low -- °F
--% Chance of Precip.
Yesterday
High -- | Low -- °F
Precip. -- in
6:09 AM 7:43 PM
Waning Crescent, 7% visible
Pressure 30.08 in
Visibility 10.0 miles
Clouds Mostly Cloudy 3000 ft
Overcast 5000 ft
Dew Point 57 °F
Humidity 60%
Rainfall 0.00 in
Snow Depth Not available.
UV 2 out of 12
Pollen 5.00 out of 12
Ozone Good
PM2.5 Good
Flu Activity Not available.
METAR KOXC 221854Z 11006KT 10SM BKN030 OVC050 22/14 A3008

More Conditions Fewer Conditions

Pressure 30.08 in
Visibility 10.0 miles
Clouds Mostly Cloudy 3000 ft
Overcast 5000 ft
Dew Point 57 °F
Humidity 60%
Rainfall 0.00 in
Snow Depth Not available.
UV 2 out of 12
Pollen 5.00 out of 12
Ozone Good
PM2.5 Good
Flu Activity Not available.
METAR KOXC 221854Z 11006KT 10SM BKN030 OVC050 22/14 A3008

More Conditions Fewer Conditions

10-Day Weather Forecast

Almanac

Astronomy

Aug. 22, 2014 Rise Set
Actual Time 6:09 AM EDT 7:43 PM EDT
Civil Twilight 5:40 AM EDT 8:12 PM EDT
Nautical Twilight 5:04 AM EDT 8:47 PM EDT
Astronomical Twilight 4:27 AM EDT 9:25 PM EDT
Moon 3:28 AM EDT 5:50 PM EDT
Length of Visible Light 14h 32m
Length of Day
13h 33m
Tomorrow will be 2m 35s shorter.
Waning Crescent, 7% of the Moon is Illuminated
Today
Waning Crescent
Aug 25
New
Sep 2
First Quarter
Sep 8
Full
Sep 15
Last Quarter

Today's Extremes

State Highs State Lows

Community

WunderPhotos

Upload Photos

1,746,224 photos uploaded!

Nearby

Air Quality

  Air Quality AQ Index Pollutant
Yesterday Good
OZONE
Yesterday Good
PM10
Current Good
OZONE
Current Good
PM2.5
Friday Good
OZONE
Friday Good
PM2.5
Saturday Good
OZONE
Saturday Good
PM2.5
Sunday Good
OZONE
Sunday Good
PM2.5
Monday Good
OZONE
Monday Good
PM2.5

Snow Depth

Station Depth Elevation
No new snow has been reported.

Earthquake Activity

City Distance Mag. Time & Date
No recent earthquake activity has been reported nearby.
Minimum magnitude displayed is 2.5.

Coastal Water Temperatures

Place Temperature
No Stations Reporting

Nearby Weather Stations